sensor_id;sensor_type;location;lat;lon;timestamp;P1;durP1;ratioP1;P2;durP2;ratioP2
54679;SDS011;40578;53.178;5.846;2022-09-27T00:01:35;4.83;;;0.73;;
54679;SDS011;40578;53.178;5.846;2022-09-27T00:04:00;7.30;;;0.87;;
54679;SDS011;40578;53.178;5.846;2022-09-27T00:06:27;7.20;;;0.90;;
54679;SDS011;40578;53.178;5.846;2022-09-27T00:08:54;5.05;;;0.90;;
54679;SDS011;40578;53.178;5.846;2022-09-27T00:11:27;3.85;;;0.80;;
54679;SDS011;40578;53.178;5.846;2022-09-27T00:13:54;7.05;;;1.13;;
54679;SDS011;40578;53.178;5.846;2022-09-27T00:16:24;5.88;;;0.77;;
54679;SDS011;40578;53.178;5.846;2022-09-27T00:18:52;6.03;;;0.90;;
54679;SDS011;40578;53.178;5.846;2022-09-27T00:21:18;2.80;;;0.80;;
54679;SDS011;40578;53.178;5.846;2022-09-27T00:23:43;5.37;;;0.80;;
54679;SDS011;40578;53.178;5.846;2022-09-27T00:26:10;8.30;;;1.07;;
54679;SDS011;40578;53.178;5.846;2022-09-27T00:28:37;6.70;;;0.70;;
54679;SDS011;40578;53.178;5.846;2022-09-27T00:31:03;4.47;;;0.53;;
54679;SDS011;40578;53.178;5.846;2022-09-27T00:33:29;6.03;;;0.70;;
54679;SDS011;40578;53.178;5.846;2022-09-27T00:36:01;3.23;;;0.50;;
54679;SDS011;40578;53.178;5.846;2022-09-27T00:38:28;3.05;;;0.45;;
54679;SDS011;40578;53.178;5.846;2022-09-27T00:40:54;4.03;;;0.60;;
54679;SDS011;40578;53.178;5.846;2022-09-27T00:43:20;5.87;;;0.70;;
54679;SDS011;40578;53.178;5.846;2022-09-27T00:45:58;2.83;;;0.50;;
54679;SDS011;40578;53.178;5.846;2022-09-27T00:48:28;3.13;;;0.43;;
54679;SDS011;40578;53.178;5.846;2022-09-27T00:50:58;3.20;;;0.50;;
54679;SDS011;40578;53.178;5.846;2022-09-27T00:55:59;4.32;;;0.60;;
54679;SDS011;40578;53.178;5.846;2022-09-27T00:58:29;5.78;;;0.70;;
54679;SDS011;40578;53.178;5.846;2022-09-27T01:01:02;3.55;;;0.70;;
54679;SDS011;40578;53.178;5.846;2022-09-27T01:03:33;4.97;;;0.80;;
54679;SDS011;40578;53.178;5.846;2022-09-27T01:06:05;3.65;;;0.80;;
54679;SDS011;40578;53.178;5.846;2022-09-27T01:08:32;6.20;;;0.80;;
54679;SDS011;40578;53.178;5.846;2022-09-27T01:11:44;8.50;;;0.80;;
54679;SDS011;40578;53.178;5.846;2022-09-27T01:33:18;4.78;;;0.70;;
54679;SDS011;40578;53.178;5.846;2022-09-27T01:38:50;4.40;;;0.70;;
54679;SDS011;40578;53.178;5.846;2022-09-27T01:41:32;4.72;;;0.70;;
54679;SDS011;40578;53.178;5.846;2022-09-27T01:44:18;2.83;;;0.70;;
54679;SDS011;40578;53.178;5.846;2022-09-27T01:46:49;2.80;;;0.55;;
54679;SDS011;40578;53.178;5.846;2022-09-27T01:49:22;5.78;;;1.38;;
54679;SDS011;40578;53.178;5.846;2022-09-27T01:51:58;5.22;;;0.90;;
54679;SDS011;40578;53.178;5.846;2022-09-27T01:54:30;6.72;;;0.77;;
54679;SDS011;40578;53.178;5.846;2022-09-27T01:57:01;8.73;;;0.90;;
54679;SDS011;40578;53.178;5.846;2022-09-27T01:59:35;3.85;;;0.60;;
54679;SDS011;40578;53.178;5.846;2022-09-27T02:04:33;8.40;;;0.90;;
54679;SDS011;40578;53.178;5.846;2022-09-27T02:07:26;5.60;;;0.60;;
54679;SDS011;40578;53.178;5.846;2022-09-27T02:09:56;5.75;;;0.80;;
54679;SDS011;40578;53.178;5.846;2022-09-27T02:12:29;5.53;;;0.80;;
54679;SDS011;40578;53.178;5.846;2022-09-27T02:15:07;2.92;;;0.65;;
54679;SDS011;40578;53.178;5.846;2022-09-27T02:23:02;4.75;;;0.45;;
54679;SDS011;40578;53.178;5.846;2022-09-27T02:28:51;12.23;;;0.63;;
54679;SDS011;40578;53.178;5.846;2022-09-27T02:30:57;2.63;;;0.40;;
54679;SDS011;40578;53.178;5.846;2022-09-27T02:33:23;2.17;;;0.77;;
54679;SDS011;40578;53.178;5.846;2022-09-27T02:35:55;3.80;;;0.70;;
54679;SDS011;40578;53.178;5.846;2022-09-27T02:38:21;6.30;;;0.70;;
54679;SDS011;40578;53.178;5.846;2022-09-27T02:40:47;5.65;;;0.80;;
54679;SDS011;40578;53.178;5.846;2022-09-27T02:43:14;5.10;;;0.60;;
54679;SDS011;40578;53.178;5.846;2022-09-27T02:48:21;3.33;;;0.52;;
54679;SDS011;40578;53.178;5.846;2022-09-27T02:51:08;4.43;;;0.50;;
54679;SDS011;40578;53.178;5.846;2022-09-27T02:59:40;3.92;;;0.60;;
54679;SDS011;40578;53.178;5.846;2022-09-27T03:05:20;6.50;;;0.60;;
54679;SDS011;40578;53.178;5.846;2022-09-27T03:07:51;4.65;;;0.50;;
54679;SDS011;40578;53.178;5.846;2022-09-27T03:10:22;4.87;;;0.70;;
54679;SDS011;40578;53.178;5.846;2022-09-27T03:12:50;3.63;;;0.50;;
54679;SDS011;40578;53.178;5.846;2022-09-27T03:15:17;3.08;;;0.60;;
54679;SDS011;40578;53.178;5.846;2022-09-27T03:17:43;3.13;;;0.60;;
54679;SDS011;40578;53.178;5.846;2022-09-27T03:20:08;4.00;;;0.50;;
54679;SDS011;40578;53.178;5.846;2022-09-27T03:22:34;2.80;;;0.50;;
54679;SDS011;40578;53.178;5.846;2022-09-27T03:25:02;5.18;;;0.60;;
54679;SDS011;40578;53.178;5.846;2022-09-27T03:27:29;4.90;;;0.95;;
54679;SDS011;40578;53.178;5.846;2022-09-27T03:29:55;3.57;;;0.80;;
54679;SDS011;40578;53.178;5.846;2022-09-27T03:32:21;5.45;;;0.65;;
54679;SDS011;40578;53.178;5.846;2022-09-27T03:34:47;7.07;;;1.00;;
54679;SDS011;40578;53.178;5.846;2022-09-27T03:37:12;3.70;;;0.60;;
54679;SDS011;40578;53.178;5.846;2022-09-27T03:39:38;6.73;;;1.13;;
54679;SDS011;40578;53.178;5.846;2022-09-27T03:42:04;6.20;;;0.82;;
54679;SDS011;40578;53.178;5.846;2022-09-27T03:44:30;4.63;;;0.77;;
54679;SDS011;40578;53.178;5.846;2022-09-27T03:46:57;5.88;;;0.65;;
54679;SDS011;40578;53.178;5.846;2022-09-27T03:49:23;6.35;;;1.35;;
54679;SDS011;40578;53.178;5.846;2022-09-27T03:51:49;4.40;;;0.70;;
54679;SDS011;40578;53.178;5.846;2022-09-27T03:54:14;5.07;;;1.10;;
54679;SDS011;40578;53.178;5.846;2022-09-27T03:56:40;7.93;;;1.10;;
54679;SDS011;40578;53.178;5.846;2022-09-27T03:59:05;2.47;;;0.80;;
54679;SDS011;40578;53.178;5.846;2022-09-27T04:01:31;3.20;;;0.90;;
54679;SDS011;40578;53.178;5.846;2022-09-27T04:03:59;5.32;;;0.73;;
54679;SDS011;40578;53.178;5.846;2022-09-27T04:06:25;3.07;;;0.40;;
54679;SDS011;40578;53.178;5.846;2022-09-27T04:08:51;5.00;;;0.60;;
54679;SDS011;40578;53.178;5.846;2022-09-27T04:11:18;9.55;;;1.38;;
54679;SDS011;40578;53.178;5.846;2022-09-27T04:13:44;2.83;;;0.50;;
54679;SDS011;40578;53.178;5.846;2022-09-27T04:16:10;4.47;;;0.70;;
54679;SDS011;40578;53.178;5.846;2022-09-27T04:18:36;9.93;;;0.87;;
54679;SDS011;40578;53.178;5.846;2022-09-27T04:21:01;4.07;;;0.67;;
54679;SDS011;40578;53.178;5.846;2022-09-27T04:23:27;3.07;;;0.50;;
54679;SDS011;40578;53.178;5.846;2022-09-27T04:25:54;9.27;;;0.80;;
54679;SDS011;40578;53.178;5.846;2022-09-27T04:28:19;7.15;;;0.60;;
54679;SDS011;40578;53.178;5.846;2022-09-27T04:30:45;4.23;;;0.50;;
54679;SDS011;40578;53.178;5.846;2022-09-27T04:33:11;1.13;;;0.37;;
54679;SDS011;40578;53.178;5.846;2022-09-27T04:35:37;4.33;;;1.00;;
54679;SDS011;40578;53.178;5.846;2022-09-27T04:38:21;5.20;;;0.90;;
54679;SDS011;40578;53.178;5.846;2022-09-27T04:40:48;4.75;;;0.98;;
54679;SDS011;40578;53.178;5.846;2022-09-27T04:43:15;2.67;;;0.68;;
54679;SDS011;40578;53.178;5.846;2022-09-27T04:45:41;3.58;;;0.60;;
54679;SDS011;40578;53.178;5.846;2022-09-27T04:48:08;4.43;;;0.95;;
54679;SDS011;40578;53.178;5.846;2022-09-27T04:50:34;7.10;;;0.80;;
54679;SDS011;40578;53.178;5.846;2022-09-27T04:53:00;6.93;;;1.00;;
54679;SDS011;40578;53.178;5.846;2022-09-27T04:55:26;5.07;;;1.00;;
54679;SDS011;40578;53.178;5.846;2022-09-27T04:57:51;5.20;;;1.10;;
54679;SDS011;40578;53.178;5.846;2022-09-27T05:00:18;11.35;;;1.10;;
54679;SDS011;40578;53.178;5.846;2022-09-27T05:02:44;8.40;;;1.00;;
54679;SDS011;40578;53.178;5.846;2022-09-27T05:05:10;8.85;;;1.08;;
54679;SDS011;40578;53.178;5.846;2022-09-27T05:07:36;5.50;;;0.87;;
54679;SDS011;40578;53.178;5.846;2022-09-27T05:10:02;6.30;;;1.17;;
54679;SDS011;40578;53.178;5.846;2022-09-27T05:12:28;20.55;;;1.70;;
54679;SDS011;40578;53.178;5.846;2022-09-27T05:14:54;8.90;;;1.60;;
54679;SDS011;40578;53.178;5.846;2022-09-27T05:17:19;7.77;;;1.53;;
54679;SDS011;40578;53.178;5.846;2022-09-27T05:19:46;7.60;;;1.13;;
54679;SDS011;40578;53.178;5.846;2022-09-27T05:22:12;5.78;;;1.20;;
54679;SDS011;40578;53.178;5.846;2022-09-27T05:24:39;3.72;;;1.00;;
54679;SDS011;40578;53.178;5.846;2022-09-27T05:27:06;4.00;;;1.07;;
54679;SDS011;40578;53.178;5.846;2022-09-27T05:29:36;9.68;;;1.60;;
54679;SDS011;40578;53.178;5.846;2022-09-27T05:32:02;3.03;;;1.00;;
54679;SDS011;40578;53.178;5.846;2022-09-27T05:34:28;9.45;;;1.25;;
54679;SDS011;40578;53.178;5.846;2022-09-27T05:36:56;5.93;;;1.20;;
54679;SDS011;40578;53.178;5.846;2022-09-27T05:39:22;13.93;;;1.83;;
54679;SDS011;40578;53.178;5.846;2022-09-27T05:41:48;6.53;;;1.60;;
54679;SDS011;40578;53.178;5.846;2022-09-27T05:44:14;6.70;;;1.25;;
54679;SDS011;40578;53.178;5.846;2022-09-27T05:46:41;5.82;;;1.20;;
54679;SDS011;40578;53.178;5.846;2022-09-27T05:49:06;7.87;;;1.10;;
54679;SDS011;40578;53.178;5.846;2022-09-27T05:51:32;5.67;;;1.30;;
54679;SDS011;40578;53.178;5.846;2022-09-27T05:53:58;7.37;;;0.97;;
54679;SDS011;40578;53.178;5.846;2022-09-27T05:56:23;8.87;;;1.20;;
54679;SDS011;40578;53.178;5.846;2022-09-27T05:58:49;7.57;;;1.43;;
54679;SDS011;40578;53.178;5.846;2022-09-27T06:01:15;5.88;;;0.90;;
54679;SDS011;40578;53.178;5.846;2022-09-27T06:03:42;4.40;;;0.90;;
54679;SDS011;40578;53.178;5.846;2022-09-27T06:06:07;8.63;;;1.00;;
54679;SDS011;40578;53.178;5.846;2022-09-27T06:08:35;5.00;;;1.05;;
54679;SDS011;40578;53.178;5.846;2022-09-27T06:11:03;9.15;;;1.30;;
54679;SDS011;40578;53.178;5.846;2022-09-27T06:13:36;5.35;;;1.27;;
54679;SDS011;40578;53.178;5.846;2022-09-27T06:16:06;9.55;;;1.30;;
54679;SDS011;40578;53.178;5.846;2022-09-27T06:18:34;9.38;;;1.30;;
54679;SDS011;40578;53.178;5.846;2022-09-27T06:21:03;12.57;;;1.77;;
54679;SDS011;40578;53.178;5.846;2022-09-27T06:23:30;7.95;;;1.50;;
54679;SDS011;40578;53.178;5.846;2022-09-27T06:25:59;9.95;;;1.20;;
54679;SDS011;40578;53.178;5.846;2022-09-27T06:28:29;6.50;;;1.27;;
54679;SDS011;40578;53.178;5.846;2022-09-27T06:30:56;17.73;;;1.77;;
54679;SDS011;40578;53.178;5.846;2022-09-27T06:33:24;7.32;;;1.77;;
54679;SDS011;40578;53.178;5.846;2022-09-27T06:35:50;5.40;;;1.23;;
54679;SDS011;40578;53.178;5.846;2022-09-27T06:38:16;9.48;;;1.60;;
54679;SDS011;40578;53.178;5.846;2022-09-27T06:40:45;8.70;;;1.40;;
54679;SDS011;40578;53.178;5.846;2022-09-27T06:43:12;7.13;;;1.00;;
54679;SDS011;40578;53.178;5.846;2022-09-27T06:45:39;5.05;;;0.90;;
54679;SDS011;40578;53.178;5.846;2022-09-27T06:48:05;4.03;;;0.90;;
54679;SDS011;40578;53.178;5.846;2022-09-27T06:50:33;9.75;;;1.25;;
54679;SDS011;40578;53.178;5.846;2022-09-27T06:53:01;5.88;;;1.23;;
54679;SDS011;40578;53.178;5.846;2022-09-27T06:55:27;6.85;;;1.20;;
54679;SDS011;40578;53.178;5.846;2022-09-27T06:57:56;28.33;;;1.73;;
54679;SDS011;40578;53.178;5.846;2022-09-27T07:00:42;3.92;;;1.10;;
54679;SDS011;40578;53.178;5.846;2022-09-27T07:03:10;7.95;;;1.40;;
54679;SDS011;40578;53.178;5.846;2022-09-27T07:05:38;6.10;;;1.23;;
54679;SDS011;40578;53.178;5.846;2022-09-27T07:08:05;7.93;;;1.10;;
54679;SDS011;40578;53.178;5.846;2022-09-27T07:10:33;3.50;;;0.90;;
54679;SDS011;40578;53.178;5.846;2022-09-27T07:13:03;7.47;;;1.20;;
54679;SDS011;40578;53.178;5.846;2022-09-27T07:15:31;7.05;;;1.25;;
54679;SDS011;40578;53.178;5.846;2022-09-27T07:17:57;7.60;;;1.10;;
54679;SDS011;40578;53.178;5.846;2022-09-27T07:20:27;7.30;;;1.27;;
54679;SDS011;40578;53.178;5.846;2022-09-27T07:22:55;10.30;;;1.65;;
54679;SDS011;40578;53.178;5.846;2022-09-27T07:25:22;6.97;;;1.40;;
54679;SDS011;40578;53.178;5.846;2022-09-27T07:27:49;3.67;;;0.90;;
54679;SDS011;40578;53.178;5.846;2022-09-27T07:30:16;5.38;;;0.90;;
54679;SDS011;40578;53.178;5.846;2022-09-27T07:32:43;4.00;;;0.80;;
54679;SDS011;40578;53.178;5.846;2022-09-27T07:35:10;6.93;;;0.88;;
54679;SDS011;40578;53.178;5.846;2022-09-27T07:37:36;3.22;;;0.82;;
54679;SDS011;40578;53.178;5.846;2022-09-27T07:40:03;6.65;;;1.00;;
54679;SDS011;40578;53.178;5.846;2022-09-27T07:42:34;4.75;;;0.70;;
54679;SDS011;40578;53.178;5.846;2022-09-27T07:45:05;2.75;;;0.63;;
54679;SDS011;40578;53.178;5.846;2022-09-27T07:47:32;2.85;;;0.60;;
54679;SDS011;40578;53.178;5.846;2022-09-27T07:49:58;8.48;;;0.75;;
54679;SDS011;40578;53.178;5.846;2022-09-27T07:52:23;2.60;;;0.80;;
54679;SDS011;40578;53.178;5.846;2022-09-27T07:54:49;3.00;;;0.30;;
54679;SDS011;40578;53.178;5.846;2022-09-27T07:57:15;2.77;;;0.93;;
54679;SDS011;40578;53.178;5.846;2022-09-27T07:59:41;3.60;;;0.50;;
54679;SDS011;40578;53.178;5.846;2022-09-27T08:02:14;4.13;;;0.60;;
54679;SDS011;40578;53.178;5.846;2022-09-27T08:04:41;6.18;;;0.73;;
54679;SDS011;40578;53.178;5.846;2022-09-27T08:07:13;2.55;;;0.40;;
54679;SDS011;40578;53.178;5.846;2022-09-27T08:09:38;3.25;;;0.40;;
54679;SDS011;40578;53.178;5.846;2022-09-27T08:12:04;5.00;;;1.20;;
54679;SDS011;40578;53.178;5.846;2022-09-27T08:14:30;3.93;;;0.47;;
54679;SDS011;40578;53.178;5.846;2022-09-27T08:16:56;3.37;;;0.60;;
54679;SDS011;40578;53.178;5.846;2022-09-27T08:19:21;3.07;;;0.57;;
54679;SDS011;40578;53.178;5.846;2022-09-27T08:21:50;5.80;;;0.70;;
54679;SDS011;40578;53.178;5.846;2022-09-27T08:24:19;3.47;;;0.60;;
54679;SDS011;40578;53.178;5.846;2022-09-27T08:26:45;3.22;;;0.52;;
54679;SDS011;40578;53.178;5.846;2022-09-27T08:29:10;2.20;;;0.43;;
54679;SDS011;40578;53.178;5.846;2022-09-27T08:31:37;6.00;;;0.73;;
54679;SDS011;40578;53.178;5.846;2022-09-27T08:34:02;4.23;;;1.00;;
54679;SDS011;40578;53.178;5.846;2022-09-27T08:36:29;9.82;;;1.38;;
54679;SDS011;40578;53.178;5.846;2022-09-27T08:38:55;7.03;;;0.88;;
54679;SDS011;40578;53.178;5.846;2022-09-27T08:52:46;9.32;;;1.30;;
54679;SDS011;40578;53.178;5.846;2022-09-27T08:55:29;6.45;;;1.13;;
54679;SDS011;40578;53.178;5.846;2022-09-27T08:58:02;10.90;;;1.08;;
54679;SDS011;40578;53.178;5.846;2022-09-27T09:00:37;5.68;;;0.80;;
54679;SDS011;40578;53.178;5.846;2022-09-27T09:03:03;5.43;;;0.73;;
54679;SDS011;40578;53.178;5.846;2022-09-27T09:05:30;2.63;;;0.53;;
54679;SDS011;40578;53.178;5.846;2022-09-27T09:11:04;2.38;;;0.55;;
54679;SDS011;40578;53.178;5.846;2022-09-27T09:16:57;5.95;;;0.60;;
54679;SDS011;40578;53.178;5.846;2022-09-27T09:25:35;6.45;;;0.93;;
54679;SDS011;40578;53.178;5.846;2022-09-27T09:33:44;4.88;;;1.17;;
54679;SDS011;40578;53.178;5.846;2022-09-27T09:39:15;3.95;;;0.73;;
54679;SDS011;40578;53.178;5.846;2022-09-27T09:44:48;3.00;;;0.57;;
54679;SDS011;40578;53.178;5.846;2022-09-27T09:49:47;1.90;;;0.50;;
54679;SDS011;40578;53.178;5.846;2022-09-27T09:52:19;3.78;;;0.60;;
54679;SDS011;40578;53.178;5.846;2022-09-27T09:54:54;7.97;;;0.88;;
54679;SDS011;40578;53.178;5.846;2022-09-27T10:00:14;8.07;;;1.02;;
54679;SDS011;40578;53.178;5.846;2022-09-27T10:02:43;8.00;;;0.88;;
54679;SDS011;40578;53.178;5.846;2022-09-27T10:05:14;5.78;;;1.00;;
54679;SDS011;40578;53.178;5.846;2022-09-27T10:07:41;5.72;;;0.90;;
54679;SDS011;40578;53.178;5.846;2022-09-27T10:10:09;3.58;;;0.50;;
54679;SDS011;40578;53.178;5.846;2022-09-27T10:12:39;5.22;;;0.80;;
54679;SDS011;40578;53.178;5.846;2022-09-27T10:15:05;3.87;;;0.70;;
54679;SDS011;40578;53.178;5.846;2022-09-27T10:17:35;2.20;;;0.40;;
54679;SDS011;40578;53.178;5.846;2022-09-27T10:20:03;2.53;;;0.45;;
54679;SDS011;40578;53.178;5.846;2022-09-27T10:22:38;4.25;;;0.52;;
54679;SDS011;40578;53.178;5.846;2022-09-27T10:25:09;2.80;;;0.63;;
54679;SDS011;40578;53.178;5.846;2022-09-27T10:30:06;5.88;;;0.88;;
54679;SDS011;40578;53.178;5.846;2022-09-27T10:32:53;3.72;;;0.70;;
54679;SDS011;40578;53.178;5.846;2022-09-27T10:35:31;3.50;;;0.77;;
54679;SDS011;40578;53.178;5.846;2022-09-27T10:40:46;3.08;;;0.50;;
54679;SDS011;40578;53.178;5.846;2022-09-27T10:45:59;4.35;;;0.43;;
54679;SDS011;40578;53.178;5.846;2022-09-27T10:48:34;4.05;;;0.30;;
54679;SDS011;40578;53.178;5.846;2022-09-27T10:51:03;1.88;;;0.43;;
54679;SDS011;40578;53.178;5.846;2022-09-27T10:53:31;2.72;;;0.57;;
54679;SDS011;40578;53.178;5.846;2022-09-27T10:55:59;3.53;;;0.38;;
54679;SDS011;40578;53.178;5.846;2022-09-27T10:58:32;2.90;;;0.52;;
54679;SDS011;40578;53.178;5.846;2022-09-27T11:01:01;4.22;;;0.60;;
54679;SDS011;40578;53.178;5.846;2022-09-27T11:03:29;2.80;;;0.65;;
54679;SDS011;40578;53.178;5.846;2022-09-27T11:05:56;2.20;;;0.50;;
54679;SDS011;40578;53.178;5.846;2022-09-27T11:11:03;3.08;;;0.60;;
54679;SDS011;40578;53.178;5.846;2022-09-27T11:13:36;2.10;;;0.50;;
54679;SDS011;40578;53.178;5.846;2022-09-27T11:19:01;8.45;;;0.60;;
54679;SDS011;40578;53.178;5.846;2022-09-27T11:41:30;5.25;;;1.63;;
54679;SDS011;40578;53.178;5.846;2022-09-27T11:44:17;6.15;;;0.80;;
54679;SDS011;40578;53.178;5.846;2022-09-27T11:50:02;6.28;;;0.75;;
54679;SDS011;40578;53.178;5.846;2022-09-27T11:55:40;4.07;;;0.57;;
54679;SDS011;40578;53.178;5.846;2022-09-27T12:03:37;4.03;;;0.73;;
54679;SDS011;40578;53.178;5.846;2022-09-27T12:06:39;2.63;;;0.50;;
54679;SDS011;40578;53.178;5.846;2022-09-27T12:09:11;2.65;;;0.55;;
54679;SDS011;40578;53.178;5.846;2022-09-27T12:11:53;4.50;;;1.00;;
54679;SDS011;40578;53.178;5.846;2022-09-27T12:14:39;3.42;;;0.60;;
54679;SDS011;40578;53.178;5.846;2022-09-27T12:17:32;1.92;;;0.30;;
54679;SDS011;40578;53.178;5.846;2022-09-27T12:19:59;4.40;;;0.55;;
54679;SDS011;40578;53.178;5.846;2022-09-27T12:22:34;3.60;;;0.65;;
54679;SDS011;40578;53.178;5.846;2022-09-27T12:25:16;3.45;;;0.50;;
54679;SDS011;40578;53.178;5.846;2022-09-27T12:27:48;1.95;;;0.43;;
54679;SDS011;40578;53.178;5.846;2022-09-27T12:30:20;3.35;;;0.73;;
54679;SDS011;40578;53.178;5.846;2022-09-27T12:35:56;3.67;;;0.65;;
54679;SDS011;40578;53.178;5.846;2022-09-27T12:41:08;6.85;;;0.70;;
54679;SDS011;40578;53.178;5.846;2022-09-27T12:43:43;6.53;;;1.05;;
54679;SDS011;40578;53.178;5.846;2022-09-27T12:46:32;5.22;;;0.63;;
54679;SDS011;40578;53.178;5.846;2022-09-27T13:10:57;2.63;;;0.60;;
54679;SDS011;40578;53.178;5.846;2022-09-27T13:13:49;4.20;;;0.90;;
54679;SDS011;40578;53.178;5.846;2022-09-27T13:16:19;6.68;;;1.13;;
54679;SDS011;40578;53.178;5.846;2022-09-27T13:18:55;4.07;;;0.90;;
54679;SDS011;40578;53.178;5.846;2022-09-27T13:24:29;9.65;;;1.02;;
54679;SDS011;40578;53.178;5.846;2022-09-27T13:26:55;4.38;;;0.82;;
54679;SDS011;40578;53.178;5.846;2022-09-27T13:29:26;4.15;;;0.75;;
54679;SDS011;40578;53.178;5.846;2022-09-27T13:37:20;1.15;;;0.30;;
54679;SDS011;40578;53.178;5.846;2022-09-27T13:42:43;4.13;;;0.63;;
54679;SDS011;40578;53.178;5.846;2022-09-27T13:45:34;5.03;;;0.40;;
54679;SDS011;40578;53.178;5.846;2022-09-27T13:48:53;5.60;;;0.50;;
54679;SDS011;40578;53.178;5.846;2022-09-27T13:51:02;3.38;;;0.50;;
54679;SDS011;40578;53.178;5.846;2022-09-27T13:53:39;1.83;;;0.20;;
54679;SDS011;40578;53.178;5.846;2022-09-27T13:56:05;2.67;;;0.65;;
54679;SDS011;40578;53.178;5.846;2022-09-27T13:58:58;1.92;;;0.55;;
54679;SDS011;40578;53.178;5.846;2022-09-27T14:01:26;2.47;;;0.40;;
54679;SDS011;40578;53.178;5.846;2022-09-27T14:07:06;2.38;;;0.50;;
54679;SDS011;40578;53.178;5.846;2022-09-27T14:09:38;1.55;;;0.55;;
54679;SDS011;40578;53.178;5.846;2022-09-27T14:12:11;2.30;;;0.43;;
54679;SDS011;40578;53.178;5.846;2022-09-27T14:14:43;1.48;;;0.40;;
54679;SDS011;40578;53.178;5.846;2022-09-27T14:17:11;2.08;;;0.47;;
54679;SDS011;40578;53.178;5.846;2022-09-27T14:19:40;1.58;;;0.38;;
54679;SDS011;40578;53.178;5.846;2022-09-27T14:29:58;1.23;;;0.32;;
54679;SDS011;40578;53.178;5.846;2022-09-27T14:32:32;3.40;;;0.40;;
54679;SDS011;40578;53.178;5.846;2022-09-27T14:35:17;1.73;;;0.25;;
54679;SDS011;40578;53.178;5.846;2022-09-27T14:38:07;3.00;;;0.40;;
54679;SDS011;40578;53.178;5.846;2022-09-27T14:40:41;1.33;;;0.40;;
54679;SDS011;40578;53.178;5.846;2022-09-27T14:43:15;7.30;;;0.45;;
54679;SDS011;40578;53.178;5.846;2022-09-27T14:45:43;3.35;;;0.30;;
54679;SDS011;40578;53.178;5.846;2022-09-27T14:48:28;2.58;;;0.35;;
54679;SDS011;40578;53.178;5.846;2022-09-27T14:51:00;2.92;;;0.30;;
54679;SDS011;40578;53.178;5.846;2022-09-27T14:53:39;3.70;;;0.50;;
54679;SDS011;40578;53.178;5.846;2022-09-27T14:56:09;3.97;;;0.70;;
54679;SDS011;40578;53.178;5.846;2022-09-27T14:58:42;4.82;;;0.47;;
54679;SDS011;40578;53.178;5.846;2022-09-27T15:01:19;4.47;;;0.40;;
54679;SDS011;40578;53.178;5.846;2022-09-27T15:03:45;3.03;;;0.50;;
54679;SDS011;40578;53.178;5.846;2022-09-27T15:06:12;2.55;;;0.65;;
54679;SDS011;40578;53.178;5.846;2022-09-27T15:08:42;1.92;;;0.52;;
54679;SDS011;40578;53.178;5.846;2022-09-27T15:11:11;3.50;;;0.50;;
54679;SDS011;40578;53.178;5.846;2022-09-27T15:13:37;6.20;;;1.00;;
54679;SDS011;40578;53.178;5.846;2022-09-27T15:16:09;7.38;;;0.85;;
54679;SDS011;40578;53.178;5.846;2022-09-27T15:18:45;2.58;;;0.52;;
54679;SDS011;40578;53.178;5.846;2022-09-27T15:21:32;8.45;;;1.42;;
54679;SDS011;40578;53.178;5.846;2022-09-27T15:23:58;5.07;;;0.60;;
54679;SDS011;40578;53.178;5.846;2022-09-27T15:28:59;6.50;;;0.75;;
54679;SDS011;40578;53.178;5.846;2022-09-27T15:31:28;4.50;;;0.87;;
54679;SDS011;40578;53.178;5.846;2022-09-27T15:34:04;4.10;;;0.60;;
54679;SDS011;40578;53.178;5.846;2022-09-27T15:36:48;6.15;;;0.75;;
54679;SDS011;40578;53.178;5.846;2022-09-27T15:39:28;4.53;;;0.90;;
54679;SDS011;40578;53.178;5.846;2022-09-27T15:42:08;1.63;;;0.65;;
54679;SDS011;40578;53.178;5.846;2022-09-27T15:52:45;4.47;;;0.73;;
54679;SDS011;40578;53.178;5.846;2022-09-27T15:55:19;5.57;;;0.77;;
54679;SDS011;40578;53.178;5.846;2022-09-27T15:57:52;4.22;;;0.90;;
54679;SDS011;40578;53.178;5.846;2022-09-27T16:00:23;7.68;;;0.85;;
54679;SDS011;40578;53.178;5.846;2022-09-27T16:02:50;4.18;;;0.80;;
54679;SDS011;40578;53.178;5.846;2022-09-27T16:05:16;2.93;;;0.70;;
54679;SDS011;40578;53.178;5.846;2022-09-27T16:07:42;2.80;;;0.85;;
54679;SDS011;40578;53.178;5.846;2022-09-27T16:12:44;4.20;;;0.83;;
54679;SDS011;40578;53.178;5.846;2022-09-27T16:15:11;3.75;;;0.50;;
54679;SDS011;40578;53.178;5.846;2022-09-27T16:17:37;1.75;;;0.60;;
54679;SDS011;40578;53.178;5.846;2022-09-27T16:20:04;2.38;;;0.60;;
54679;SDS011;40578;53.178;5.846;2022-09-27T16:22:30;2.35;;;0.50;;
54679;SDS011;40578;53.178;5.846;2022-09-27T16:24:55;1.90;;;0.60;;
54679;SDS011;40578;53.178;5.846;2022-09-27T16:27:25;2.70;;;0.70;;
54679;SDS011;40578;53.178;5.846;2022-09-27T16:29:53;3.53;;;0.90;;
54679;SDS011;40578;53.178;5.846;2022-09-27T16:32:20;2.95;;;0.68;;
54679;SDS011;40578;53.178;5.846;2022-09-27T16:34:46;2.73;;;0.80;;
54679;SDS011;40578;53.178;5.846;2022-09-27T16:37:11;4.40;;;1.07;;
54679;SDS011;40578;53.178;5.846;2022-09-27T16:39:37;6.93;;;0.90;;
54679;SDS011;40578;53.178;5.846;2022-09-27T16:42:03;3.13;;;0.68;;
54679;SDS011;40578;53.178;5.846;2022-09-27T16:44:31;7.30;;;1.00;;
54679;SDS011;40578;53.178;5.846;2022-09-27T16:47:04;5.70;;;0.90;;
54679;SDS011;40578;53.178;5.846;2022-09-27T16:49:31;8.63;;;0.82;;
54679;SDS011;40578;53.178;5.846;2022-09-27T16:52:15;8.00;;;0.80;;
54679;SDS011;40578;53.178;5.846;2022-09-27T16:54:41;10.30;;;1.23;;
54679;SDS011;40578;53.178;5.846;2022-09-27T16:57:07;4.00;;;0.83;;
54679;SDS011;40578;53.178;5.846;2022-09-27T16:59:33;8.02;;;0.70;;
54679;SDS011;40578;53.178;5.846;2022-09-27T17:01:59;2.72;;;0.80;;
54679;SDS011;40578;53.178;5.846;2022-09-27T17:04:26;6.37;;;1.03;;
54679;SDS011;40578;53.178;5.846;2022-09-27T17:06:55;6.47;;;1.30;;
54679;SDS011;40578;53.178;5.846;2022-09-27T17:09:20;5.13;;;1.17;;
54679;SDS011;40578;53.178;5.846;2022-09-27T17:11:46;6.37;;;1.07;;
54679;SDS011;40578;53.178;5.846;2022-09-27T17:14:12;7.47;;;1.87;;
54679;SDS011;40578;53.178;5.846;2022-09-27T17:16:41;3.50;;;1.27;;
54679;SDS011;40578;53.178;5.846;2022-09-27T17:19:07;6.88;;;1.90;;
54679;SDS011;40578;53.178;5.846;2022-09-27T17:21:34;5.70;;;1.55;;
54679;SDS011;40578;53.178;5.846;2022-09-27T17:24:00;5.80;;;1.80;;
54679;SDS011;40578;53.178;5.846;2022-09-27T17:26:26;7.00;;;1.47;;
54679;SDS011;40578;53.178;5.846;2022-09-27T17:28:54;3.25;;;1.40;;
54679;SDS011;40578;53.178;5.846;2022-09-27T17:31:21;4.38;;;1.08;;
54679;SDS011;40578;53.178;5.846;2022-09-27T17:33:48;3.75;;;1.38;;
54679;SDS011;40578;53.178;5.846;2022-09-27T17:36:19;6.03;;;1.60;;
54679;SDS011;40578;53.178;5.846;2022-09-27T17:38:47;3.83;;;1.10;;
54679;SDS011;40578;53.178;5.846;2022-09-27T17:41:14;5.25;;;1.40;;
54679;SDS011;40578;53.178;5.846;2022-09-27T17:43:42;2.83;;;1.40;;
54679;SDS011;40578;53.178;5.846;2022-09-27T17:46:20;4.35;;;1.45;;
54679;SDS011;40578;53.178;5.846;2022-09-27T17:48:47;4.25;;;1.55;;
54679;SDS011;40578;53.178;5.846;2022-09-27T17:51:32;7.18;;;1.67;;
54679;SDS011;40578;53.178;5.846;2022-09-27T17:53:59;3.55;;;1.40;;
54679;SDS011;40578;53.178;5.846;2022-09-27T17:56:25;2.50;;;1.00;;
54679;SDS011;40578;53.178;5.846;2022-09-27T17:58:52;3.92;;;1.70;;
54679;SDS011;40578;53.178;5.846;2022-09-27T18:01:20;6.78;;;2.28;;
54679;SDS011;40578;53.178;5.846;2022-09-27T18:03:47;5.07;;;2.50;;
54679;SDS011;40578;53.178;5.846;2022-09-27T18:06:17;6.20;;;1.90;;
54679;SDS011;40578;53.178;5.846;2022-09-27T18:08:42;6.23;;;2.17;;
54679;SDS011;40578;53.178;5.846;2022-09-27T18:11:13;5.70;;;1.90;;
54679;SDS011;40578;53.178;5.846;2022-09-27T18:13:41;5.78;;;1.63;;
54679;SDS011;40578;53.178;5.846;2022-09-27T18:16:12;7.35;;;1.63;;
54679;SDS011;40578;53.178;5.846;2022-09-27T18:18:39;6.47;;;2.03;;
54679;SDS011;40578;53.178;5.846;2022-09-27T18:21:07;3.55;;;1.60;;